sensor_id;sensor_type;location;lat;lon;timestamp;temperature;humidity
790;DHT22;378;48.844;9.156;2023-04-25T00:02:18;8.50;99.90
790;DHT22;378;48.844;9.156;2023-04-25T00:04:45;8.40;99.90
790;DHT22;378;48.844;9.156;2023-04-25T00:07:14;8.40;99.90
790;DHT22;378;48.844;9.156;2023-04-25T00:09:42;8.40;99.90
790;DHT22;378;48.844;9.156;2023-04-25T00:12:09;8.40;99.90
790;DHT22;378;48.844;9.156;2023-04-25T00:14:36;8.40;99.90
790;DHT22;378;48.844;9.156;2023-04-25T00:17:03;8.40;99.90
790;DHT22;378;48.844;9.156;2023-04-25T00:19:31;8.40;99.90
790;DHT22;378;48.844;9.156;2023-04-25T00:21:58;8.30;99.90
790;DHT22;378;48.844;9.156;2023-04-25T00:24:25;8.30;99.90
790;DHT22;378;48.844;9.156;2023-04-25T00:26:53;8.40;99.90
790;DHT22;378;48.844;9.156;2023-04-25T00:29:20;8.30;99.90
790;DHT22;378;48.844;9.156;2023-04-25T00:31:47;8.30;99.90
790;DHT22;378;48.844;9.156;2023-04-25T00:34:13;8.30;99.90
790;DHT22;378;48.844;9.156;2023-04-25T00:36:40;8.40;99.90
790;DHT22;378;48.844;9.156;2023-04-25T00:39:07;8.40;99.90
790;DHT22;378;48.844;9.156;2023-04-25T00:41:34;8.40;99.90
790;DHT22;378;48.844;9.156;2023-04-25T00:44:04;8.40;99.90
790;DHT22;378;48.844;9.156;2023-04-25T00:46:32;8.40;99.90
790;DHT22;378;48.844;9.156;2023-04-25T00:48:59;8.40;99.90
790;DHT22;378;48.844;9.156;2023-04-25T00:51:26;8.40;99.90
790;DHT22;378;48.844;9.156;2023-04-25T00:53:53;8.30;99.90
790;DHT22;378;48.844;9.156;2023-04-25T00:56:21;8.40;99.90
790;DHT22;378;48.844;9.156;2023-04-25T00:58:48;8.40;99.90
790;DHT22;378;48.844;9.156;2023-04-25T01:01:17;8.40;99.90
790;DHT22;378;48.844;9.156;2023-04-25T01:03:46;8.40;99.90
790;DHT22;378;48.844;9.156;2023-04-25T01:06:16;8.40;99.90
790;DHT22;378;48.844;9.156;2023-04-25T01:08:42;8.40;99.90
790;DHT22;378;48.844;9.156;2023-04-25T01:11:09;8.40;99.90
790;DHT22;378;48.844;9.156;2023-04-25T01:13:36;8.40;99.90
790;DHT22;378;48.844;9.156;2023-04-25T01:16:04;8.40;99.90
790;DHT22;378;48.844;9.156;2023-04-25T01:18:32;8.40;99.90
790;DHT22;378;48.844;9.156;2023-04-25T01:21:06;8.50;99.90
790;DHT22;378;48.844;9.156;2023-04-25T01:23:33;8.40;99.90
790;DHT22;378;48.844;9.156;2023-04-25T01:26:00;8.40;99.90
790;DHT22;378;48.844;9.156;2023-04-25T01:28:28;8.30;99.90
790;DHT22;378;48.844;9.156;2023-04-25T01:30:56;8.30;99.90
790;DHT22;378;48.844;9.156;2023-04-25T01:33:23;8.30;99.90
790;DHT22;378;48.844;9.156;2023-04-25T01:35:50;8.20;99.90
790;DHT22;378;48.844;9.156;2023-04-25T01:38:18;8.10;99.90
790;DHT22;378;48.844;9.156;2023-04-25T01:40:46;8.10;99.90
790;DHT22;378;48.844;9.156;2023-04-25T01:43:13;8.10;99.90
790;DHT22;378;48.844;9.156;2023-04-25T01:45:40;8.10;99.90
790;DHT22;378;48.844;9.156;2023-04-25T01:48:07;8.10;99.90
790;DHT22;378;48.844;9.156;2023-04-25T01:50:34;8.20;99.90
790;DHT22;378;48.844;9.156;2023-04-25T01:53:01;8.20;99.90
790;DHT22;378;48.844;9.156;2023-04-25T01:55:29;8.20;99.90
790;DHT22;378;48.844;9.156;2023-04-25T01:57:56;8.20;99.90
790;DHT22;378;48.844;9.156;2023-04-25T02:00:24;8.30;99.90
790;DHT22;378;48.844;9.156;2023-04-25T02:02:50;8.30;99.90
790;DHT22;378;48.844;9.156;2023-04-25T02:05:19;8.30;99.90
790;DHT22;378;48.844;9.156;2023-04-25T02:07:46;8.30;99.90
790;DHT22;378;48.844;9.156;2023-04-25T02:10:13;8.30;99.90
790;DHT22;378;48.844;9.156;2023-04-25T02:12:41;8.40;99.90
790;DHT22;378;48.844;9.156;2023-04-25T02:15:09;8.30;99.90
790;DHT22;378;48.844;9.156;2023-04-25T02:17:36;8.30;99.90
790;DHT22;378;48.844;9.156;2023-04-25T02:20:03;8.30;99.90
790;DHT22;378;48.844;9.156;2023-04-25T02:22:31;8.20;99.90
790;DHT22;378;48.844;9.156;2023-04-25T02:24:59;8.00;99.90
790;DHT22;378;48.844;9.156;2023-04-25T02:27:26;7.80;99.90
790;DHT22;378;48.844;9.156;2023-04-25T02:29:54;7.60;99.90
790;DHT22;378;48.844;9.156;2023-04-25T02:32:21;7.50;99.90
790;DHT22;378;48.844;9.156;2023-04-25T02:34:48;7.40;99.90
790;DHT22;378;48.844;9.156;2023-04-25T02:37:15;7.20;99.90
790;DHT22;378;48.844;9.156;2023-04-25T02:39:41;7.20;99.90
790;DHT22;378;48.844;9.156;2023-04-25T02:42:08;7.10;99.90
790;DHT22;378;48.844;9.156;2023-04-25T02:44:35;7.00;99.90
790;DHT22;378;48.844;9.156;2023-04-25T02:47:03;7.00;99.90
790;DHT22;378;48.844;9.156;2023-04-25T02:49:30;7.00;99.90
790;DHT22;378;48.844;9.156;2023-04-25T02:51:57;7.00;99.90
790;DHT22;378;48.844;9.156;2023-04-25T02:54:24;7.00;99.90
790;DHT22;378;48.844;9.156;2023-04-25T02:56:51;7.00;99.90
790;DHT22;378;48.844;9.156;2023-04-25T02:59:18;6.90;99.90
790;DHT22;378;48.844;9.156;2023-04-25T03:01:44;7.00;99.90
790;DHT22;378;48.844;9.156;2023-04-25T03:04:13;7.00;99.90
790;DHT22;378;48.844;9.156;2023-04-25T03:06:40;7.10;99.90
790;DHT22;378;48.844;9.156;2023-04-25T03:09:07;7.10;99.90
790;DHT22;378;48.844;9.156;2023-04-25T03:11:34;7.20;99.90
790;DHT22;378;48.844;9.156;2023-04-25T03:14:00;7.10;99.90
790;DHT22;378;48.844;9.156;2023-04-25T03:16:27;7.10;99.90
790;DHT22;378;48.844;9.156;2023-04-25T03:18:55;7.10;99.90
790;DHT22;378;48.844;9.156;2023-04-25T03:21:23;7.00;99.90
790;DHT22;378;48.844;9.156;2023-04-25T03:23:50;7.00;99.90
790;DHT22;378;48.844;9.156;2023-04-25T03:26:17;7.00;99.90
790;DHT22;378;48.844;9.156;2023-04-25T03:28:44;7.00;99.90
790;DHT22;378;48.844;9.156;2023-04-25T03:31:11;7.10;99.90
790;DHT22;378;48.844;9.156;2023-04-25T03:33:37;7.00;99.90
790;DHT22;378;48.844;9.156;2023-04-25T03:36:05;7.00;99.90
790;DHT22;378;48.844;9.156;2023-04-25T03:38:33;7.00;99.90
790;DHT22;378;48.844;9.156;2023-04-25T03:41:00;7.00;99.90
790;DHT22;378;48.844;9.156;2023-04-25T03:43:27;7.00;99.90
790;DHT22;378;48.844;9.156;2023-04-25T03:45:54;7.00;99.90
790;DHT22;378;48.844;9.156;2023-04-25T03:48:21;7.00;99.90
790;DHT22;378;48.844;9.156;2023-04-25T03:50:50;7.00;99.90
790;DHT22;378;48.844;9.156;2023-04-25T03:53:16;7.00;99.90
790;DHT22;378;48.844;9.156;2023-04-25T03:55:45;7.00;99.90
790;DHT22;378;48.844;9.156;2023-04-25T03:58:11;7.00;99.90
790;DHT22;378;48.844;9.156;2023-04-25T04:00:38;7.00;99.90
790;DHT22;378;48.844;9.156;2023-04-25T04:03:05;7.10;99.90
790;DHT22;378;48.844;9.156;2023-04-25T04:05:32;7.00;99.90
790;DHT22;378;48.844;9.156;2023-04-25T04:07:59;7.10;99.90
790;DHT22;378;48.844;9.156;2023-04-25T04:10:26;7.10;99.90
790;DHT22;378;48.844;9.156;2023-04-25T04:12:54;7.10;99.90
790;DHT22;378;48.844;9.156;2023-04-25T04:15:21;7.10;99.90
790;DHT22;378;48.844;9.156;2023-04-25T04:17:48;7.20;99.90
790;DHT22;378;48.844;9.156;2023-04-25T04:20:15;7.30;99.90
790;DHT22;378;48.844;9.156;2023-04-25T04:22:41;7.30;99.90
790;DHT22;378;48.844;9.156;2023-04-25T04:25:09;7.30;99.90
790;DHT22;378;48.844;9.156;2023-04-25T04:27:37;7.40;99.90
790;DHT22;378;48.844;9.156;2023-04-25T04:30:07;7.40;99.90
790;DHT22;378;48.844;9.156;2023-04-25T04:32:35;7.40;99.90
790;DHT22;378;48.844;9.156;2023-04-25T04:35:03;7.50;99.90
790;DHT22;378;48.844;9.156;2023-04-25T04:37:32;7.50;99.90
790;DHT22;378;48.844;9.156;2023-04-25T04:39:59;7.50;99.90
790;DHT22;378;48.844;9.156;2023-04-25T04:42:30;7.50;99.90
790;DHT22;378;48.844;9.156;2023-04-25T04:44:57;7.60;99.90
790;DHT22;378;48.844;9.156;2023-04-25T04:47:25;7.60;99.90
790;DHT22;378;48.844;9.156;2023-04-25T04:49:56;7.70;99.90
790;DHT22;378;48.844;9.156;2023-04-25T04:52:23;7.70;99.90
790;DHT22;378;48.844;9.156;2023-04-25T04:54:49;7.70;99.90
790;DHT22;378;48.844;9.156;2023-04-25T04:57:16;7.70;99.90
790;DHT22;378;48.844;9.156;2023-04-25T04:59:43;7.70;99.90
790;DHT22;378;48.844;9.156;2023-04-25T05:02:10;7.80;99.90
790;DHT22;378;48.844;9.156;2023-04-25T05:04:38;7.90;99.90
790;DHT22;378;48.844;9.156;2023-04-25T05:07:05;8.00;99.90
790;DHT22;378;48.844;9.156;2023-04-25T05:09:32;8.00;99.90
790;DHT22;378;48.844;9.156;2023-04-25T05:11:59;8.00;99.90
790;DHT22;378;48.844;9.156;2023-04-25T05:14:26;8.00;99.90
790;DHT22;378;48.844;9.156;2023-04-25T05:16:53;8.10;99.90
790;DHT22;378;48.844;9.156;2023-04-25T05:19:20;8.20;99.90
790;DHT22;378;48.844;9.156;2023-04-25T05:21:48;8.30;99.90
790;DHT22;378;48.844;9.156;2023-04-25T05:24:15;8.40;99.90
790;DHT22;378;48.844;9.156;2023-04-25T05:26:41;8.30;99.90
790;DHT22;378;48.844;9.156;2023-04-25T05:29:08;8.30;99.90
790;DHT22;378;48.844;9.156;2023-04-25T05:31:36;8.30;99.90
790;DHT22;378;48.844;9.156;2023-04-25T05:34:03;8.10;99.90
790;DHT22;378;48.844;9.156;2023-04-25T05:36:30;8.00;99.90
790;DHT22;378;48.844;9.156;2023-04-25T05:38:59;7.80;99.90
790;DHT22;378;48.844;9.156;2023-04-25T05:41:26;7.60;99.90
790;DHT22;378;48.844;9.156;2023-04-25T05:43:52;7.60;99.90
790;DHT22;378;48.844;9.156;2023-04-25T05:46:19;7.40;99.90
790;DHT22;378;48.844;9.156;2023-04-25T05:48:46;7.20;99.90
790;DHT22;378;48.844;9.156;2023-04-25T05:51:13;7.10;99.90
790;DHT22;378;48.844;9.156;2023-04-25T05:53:40;7.00;99.90
790;DHT22;378;48.844;9.156;2023-04-25T05:56:08;7.00;99.90
790;DHT22;378;48.844;9.156;2023-04-25T05:58:35;7.10;99.90
790;DHT22;378;48.844;9.156;2023-04-25T06:01:02;7.10;99.90
790;DHT22;378;48.844;9.156;2023-04-25T06:03:29;7.20;99.90
790;DHT22;378;48.844;9.156;2023-04-25T06:05:56;7.30;99.90
790;DHT22;378;48.844;9.156;2023-04-25T06:08:22;7.40;99.90
790;DHT22;378;48.844;9.156;2023-04-25T06:10:49;7.40;99.90
790;DHT22;378;48.844;9.156;2023-04-25T06:13:17;7.30;99.90
790;DHT22;378;48.844;9.156;2023-04-25T06:15:44;7.30;99.90
790;DHT22;378;48.844;9.156;2023-04-25T06:18:11;7.40;99.90
790;DHT22;378;48.844;9.156;2023-04-25T06:20:38;7.40;99.90
790;DHT22;378;48.844;9.156;2023-04-25T06:23:05;7.60;99.90
790;DHT22;378;48.844;9.156;2023-04-25T06:25:32;7.90;99.90
790;DHT22;378;48.844;9.156;2023-04-25T06:27:58;8.00;99.90
790;DHT22;378;48.844;9.156;2023-04-25T06:30:27;8.20;99.90
790;DHT22;378;48.844;9.156;2023-04-25T06:32:53;8.50;99.90
790;DHT22;378;48.844;9.156;2023-04-25T06:35:20;8.60;99.90
790;DHT22;378;48.844;9.156;2023-04-25T06:37:47;8.80;99.90
790;DHT22;378;48.844;9.156;2023-04-25T06:40:14;9.10;99.90
790;DHT22;378;48.844;9.156;2023-04-25T06:42:42;9.50;99.90
790;DHT22;378;48.844;9.156;2023-04-25T06:45:10;9.80;99.90
790;DHT22;378;48.844;9.156;2023-04-25T06:47:38;10.00;99.90
790;DHT22;378;48.844;9.156;2023-04-25T06:50:06;10.10;99.90
790;DHT22;378;48.844;9.156;2023-04-25T06:52:33;10.10;99.90
790;DHT22;378;48.844;9.156;2023-04-25T06:55:00;10.30;99.90
790;DHT22;378;48.844;9.156;2023-04-25T06:57:27;10.20;99.90
790;DHT22;378;48.844;9.156;2023-04-25T06:59:53;10.30;99.90
790;DHT22;378;48.844;9.156;2023-04-25T07:02:20;10.30;99.90
790;DHT22;378;48.844;9.156;2023-04-25T07:04:49;10.20;99.90
790;DHT22;378;48.844;9.156;2023-04-25T07:07:16;10.20;99.90
790;DHT22;378;48.844;9.156;2023-04-25T07:09:43;10.10;99.90
790;DHT22;378;48.844;9.156;2023-04-25T07:12:10;9.90;99.90
790;DHT22;378;48.844;9.156;2023-04-25T07:14:37;9.90;99.90
790;DHT22;378;48.844;9.156;2023-04-25T07:17:04;9.90;99.90
790;DHT22;378;48.844;9.156;2023-04-25T07:19:32;9.80;99.90
790;DHT22;378;48.844;9.156;2023-04-25T07:22:00;9.80;99.90
790;DHT22;378;48.844;9.156;2023-04-25T07:24:27;9.50;99.90
790;DHT22;378;48.844;9.156;2023-04-25T07:26:54;9.20;99.90
790;DHT22;378;48.844;9.156;2023-04-25T07:29:21;8.90;99.90
790;DHT22;378;48.844;9.156;2023-04-25T07:31:48;8.80;99.90
790;DHT22;378;48.844;9.156;2023-04-25T07:34:15;8.60;99.90
790;DHT22;378;48.844;9.156;2023-04-25T07:36:43;8.70;99.90
790;DHT22;378;48.844;9.156;2023-04-25T07:39:11;8.90;99.90
790;DHT22;378;48.844;9.156;2023-04-25T07:41:38;9.10;99.90
790;DHT22;378;48.844;9.156;2023-04-25T07:44:05;9.10;99.90
790;DHT22;378;48.844;9.156;2023-04-25T07:46:32;9.00;99.90
790;DHT22;378;48.844;9.156;2023-04-25T07:48:59;8.90;99.90
790;DHT22;378;48.844;9.156;2023-04-25T07:51:25;8.80;99.90
790;DHT22;378;48.844;9.156;2023-04-25T07:53:53;8.70;99.90
790;DHT22;378;48.844;9.156;2023-04-25T07:56:21;8.70;99.90
790;DHT22;378;48.844;9.156;2023-04-25T07:58:48;8.70;99.90
790;DHT22;378;48.844;9.156;2023-04-25T08:01:15;8.80;99.90
790;DHT22;378;48.844;9.156;2023-04-25T08:03:42;8.80;99.90
790;DHT22;378;48.844;9.156;2023-04-25T08:06:09;8.90;99.90
790;DHT22;378;48.844;9.156;2023-04-25T08:08:35;8.90;99.90
790;DHT22;378;48.844;9.156;2023-04-25T08:11:02;8.90;99.90
790;DHT22;378;48.844;9.156;2023-04-25T08:13:30;9.00;99.90
790;DHT22;378;48.844;9.156;2023-04-25T08:15:57;8.90;99.90
790;DHT22;378;48.844;9.156;2023-04-25T08:18:24;8.90;99.90
790;DHT22;378;48.844;9.156;2023-04-25T08:20:51;8.80;99.90
790;DHT22;378;48.844;9.156;2023-04-25T08:23:18;8.70;99.90
790;DHT22;378;48.844;9.156;2023-04-25T08:25:44;8.50;99.90
790;DHT22;378;48.844;9.156;2023-04-25T08:28:11;8.50;99.90
790;DHT22;378;48.844;9.156;2023-04-25T08:30:39;8.50;99.90
790;DHT22;378;48.844;9.156;2023-04-25T08:33:06;8.50;99.90
790;DHT22;378;48.844;9.156;2023-04-25T08:35:33;8.60;99.90
790;DHT22;378;48.844;9.156;2023-04-25T08:38:00;8.70;99.90
790;DHT22;378;48.844;9.156;2023-04-25T08:40:28;8.70;99.90
790;DHT22;378;48.844;9.156;2023-04-25T08:42:57;8.60;99.90
790;DHT22;378;48.844;9.156;2023-04-25T08:45:26;8.50;99.90
790;DHT22;378;48.844;9.156;2023-04-25T08:47:56;8.40;99.90
790;DHT22;378;48.844;9.156;2023-04-25T08:50:23;8.30;99.90
790;DHT22;378;48.844;9.156;2023-04-25T08:52:53;8.20;99.90
790;DHT22;378;48.844;9.156;2023-04-25T08:55:21;8.20;99.90
790;DHT22;378;48.844;9.156;2023-04-25T08:57:48;8.20;99.90
790;DHT22;378;48.844;9.156;2023-04-25T09:00:16;8.10;99.90
790;DHT22;378;48.844;9.156;2023-04-25T09:02:44;8.00;99.90
790;DHT22;378;48.844;9.156;2023-04-25T09:05:14;7.90;99.90
790;DHT22;378;48.844;9.156;2023-04-25T09:07:41;7.80;99.90
790;DHT22;378;48.844;9.156;2023-04-25T09:10:08;7.80;99.90
790;DHT22;378;48.844;9.156;2023-04-25T09:12:36;7.80;99.90
790;DHT22;378;48.844;9.156;2023-04-25T09:15:05;7.70;99.90
790;DHT22;378;48.844;9.156;2023-04-25T09:17:32;7.80;99.90
790;DHT22;378;48.844;9.156;2023-04-25T09:20:06;7.80;99.90
790;DHT22;378;48.844;9.156;2023-04-25T09:22:36;7.70;99.90
790;DHT22;378;48.844;9.156;2023-04-25T09:25:07;7.70;99.90
790;DHT22;378;48.844;9.156;2023-04-25T09:27:34;7.70;99.90
790;DHT22;378;48.844;9.156;2023-04-25T09:30:01;7.70;99.90
790;DHT22;378;48.844;9.156;2023-04-25T09:32:28;7.60;99.90
790;DHT22;378;48.844;9.156;2023-04-25T09:34:56;7.60;99.90
790;DHT22;378;48.844;9.156;2023-04-25T09:37:24;7.40;99.90
790;DHT22;378;48.844;9.156;2023-04-25T09:39:55;7.40;99.90
790;DHT22;378;48.844;9.156;2023-04-25T09:42:23;7.40;99.90
790;DHT22;378;48.844;9.156;2023-04-25T09:44:52;7.40;99.90
790;DHT22;378;48.844;9.156;2023-04-25T09:47:20;7.50;99.90
790;DHT22;378;48.844;9.156;2023-04-25T09:49:49;7.60;99.90
790;DHT22;378;48.844;9.156;2023-04-25T09:52:18;7.60;99.90
790;DHT22;378;48.844;9.156;2023-04-25T09:54:46;7.70;99.90
790;DHT22;378;48.844;9.156;2023-04-25T09:57:16;7.60;99.90
790;DHT22;378;48.844;9.156;2023-04-25T09:59:44;7.60;99.90
790;DHT22;378;48.844;9.156;2023-04-25T10:02:12;7.30;99.90
790;DHT22;378;48.844;9.156;2023-04-25T10:04:41;7.10;99.90
790;DHT22;378;48.844;9.156;2023-04-25T10:07:08;6.80;99.90
790;DHT22;378;48.844;9.156;2023-04-25T10:09:37;6.50;99.90
790;DHT22;378;48.844;9.156;2023-04-25T10:12:05;6.50;99.90
790;DHT22;378;48.844;9.156;2023-04-25T10:14:34;6.50;99.90
790;DHT22;378;48.844;9.156;2023-04-25T10:17:01;6.40;99.90
790;DHT22;378;48.844;9.156;2023-04-25T10:19:28;6.30;99.90
790;DHT22;378;48.844;9.156;2023-04-25T10:22:02;6.30;99.90
790;DHT22;378;48.844;9.156;2023-04-25T10:24:30;6.20;99.90
790;DHT22;378;48.844;9.156;2023-04-25T10:26:57;6.30;99.90
790;DHT22;378;48.844;9.156;2023-04-25T10:29:25;6.50;99.90
790;DHT22;378;48.844;9.156;2023-04-25T10:31:54;6.50;99.90
790;DHT22;378;48.844;9.156;2023-04-25T10:34:24;6.50;99.90
790;DHT22;378;48.844;9.156;2023-04-25T10:37:03;6.50;99.90
790;DHT22;378;48.844;9.156;2023-04-25T10:39:30;6.50;99.90
790;DHT22;378;48.844;9.156;2023-04-25T10:42:02;6.50;99.90
790;DHT22;378;48.844;9.156;2023-04-25T10:44:29;6.50;99.90
790;DHT22;378;48.844;9.156;2023-04-25T10:46:59;6.50;99.90
790;DHT22;378;48.844;9.156;2023-04-25T10:49:32;6.50;99.90
790;DHT22;378;48.844;9.156;2023-04-25T10:52:15;6.50;99.90
790;DHT22;378;48.844;9.156;2023-04-25T10:54:45;6.60;99.90
790;DHT22;378;48.844;9.156;2023-04-25T10:57:28;6.60;99.90
790;DHT22;378;48.844;9.156;2023-04-25T10:59:58;6.70;99.90
790;DHT22;378;48.844;9.156;2023-04-25T11:02:28;6.70;99.90
790;DHT22;378;48.844;9.156;2023-04-25T11:04:55;6.80;99.90
790;DHT22;378;48.844;9.156;2023-04-25T11:07:28;6.80;99.90
790;DHT22;378;48.844;9.156;2023-04-25T11:10:01;6.90;99.90
790;DHT22;378;48.844;9.156;2023-04-25T11:12:30;6.90;99.90
790;DHT22;378;48.844;9.156;2023-04-25T11:15:01;6.80;99.90
790;DHT22;378;48.844;9.156;2023-04-25T11:17:29;6.90;99.90
790;DHT22;378;48.844;9.156;2023-04-25T11:19:56;7.00;99.90
790;DHT22;378;48.844;9.156;2023-04-25T11:22:23;7.00;99.90
790;DHT22;378;48.844;9.156;2023-04-25T11:24:50;7.10;99.90
790;DHT22;378;48.844;9.156;2023-04-25T11:27:17;7.10;99.90
790;DHT22;378;48.844;9.156;2023-04-25T11:29:44;7.30;99.90
790;DHT22;378;48.844;9.156;2023-04-25T11:32:14;7.20;99.90
790;DHT22;378;48.844;9.156;2023-04-25T11:34:44;7.30;99.90
790;DHT22;378;48.844;9.156;2023-04-25T11:37:11;7.40;99.90
790;DHT22;378;48.844;9.156;2023-04-25T11:39:43;7.50;99.90
790;DHT22;378;48.844;9.156;2023-04-25T11:42:13;7.40;99.90
790;DHT22;378;48.844;9.156;2023-04-25T11:44:40;7.40;99.90
790;DHT22;378;48.844;9.156;2023-04-25T11:47:07;7.20;99.90
790;DHT22;378;48.844;9.156;2023-04-25T11:49:35;7.20;99.90
790;DHT22;378;48.844;9.156;2023-04-25T11:52:06;7.10;99.90
790;DHT22;378;48.844;9.156;2023-04-25T11:54:35;7.20;99.90
790;DHT22;378;48.844;9.156;2023-04-25T11:57:03;7.50;99.90
790;DHT22;378;48.844;9.156;2023-04-25T11:59:30;7.60;99.90
790;DHT22;378;48.844;9.156;2023-04-25T12:01:57;7.60;99.90
790;DHT22;378;48.844;9.156;2023-04-25T12:04:25;7.70;99.90
790;DHT22;378;48.844;9.156;2023-04-25T12:06:53;7.60;99.90
790;DHT22;378;48.844;9.156;2023-04-25T12:09:28;7.40;99.90
790;DHT22;378;48.844;9.156;2023-04-25T12:11:56;7.30;99.90
790;DHT22;378;48.844;9.156;2023-04-25T12:14:25;7.20;99.90
790;DHT22;378;48.844;9.156;2023-04-25T12:16:58;7.20;99.90
790;DHT22;378;48.844;9.156;2023-04-25T12:19:25;7.30;99.90
790;DHT22;378;48.844;9.156;2023-04-25T12:21:52;7.50;99.90
790;DHT22;378;48.844;9.156;2023-04-25T12:24:24;7.60;99.90
790;DHT22;378;48.844;9.156;2023-04-25T12:26:53;7.60;99.90
790;DHT22;378;48.844;9.156;2023-04-25T12:29:22;7.90;99.90
790;DHT22;378;48.844;9.156;2023-04-25T12:31:50;8.00;99.90
790;DHT22;378;48.844;9.156;2023-04-25T12:34:17;8.20;99.90
790;DHT22;378;48.844;9.156;2023-04-25T12:36:44;8.50;99.90
790;DHT22;378;48.844;9.156;2023-04-25T12:39:15;8.80;99.90
790;DHT22;378;48.844;9.156;2023-04-25T12:41:44;9.00;99.90
790;DHT22;378;48.844;9.156;2023-04-25T12:44:11;9.10;99.90
790;DHT22;378;48.844;9.156;2023-04-25T12:46:38;9.50;99.90
790;DHT22;378;48.844;9.156;2023-04-25T12:49:06;9.60;99.90
790;DHT22;378;48.844;9.156;2023-04-25T12:51:33;9.40;99.90
790;DHT22;378;48.844;9.156;2023-04-25T12:54:01;9.80;99.90
790;DHT22;378;48.844;9.156;2023-04-25T12:56:28;11.00;99.90
790;DHT22;378;48.844;9.156;2023-04-25T12:58:57;11.80;99.90
790;DHT22;378;48.844;9.156;2023-04-25T13:01:24;12.20;99.90
790;DHT22;378;48.844;9.156;2023-04-25T13:03:52;11.70;99.90
790;DHT22;378;48.844;9.156;2023-04-25T13:06:20;11.30;99.90
790;DHT22;378;48.844;9.156;2023-04-25T13:08:47;11.30;99.90
790;DHT22;378;48.844;9.156;2023-04-25T13:11:14;11.20;99.90
790;DHT22;378;48.844;9.156;2023-04-25T13:13:41;11.30;99.90
790;DHT22;378;48.844;9.156;2023-04-25T13:16:09;11.40;99.90
790;DHT22;378;48.844;9.156;2023-04-25T13:18:36;11.70;99.90
790;DHT22;378;48.844;9.156;2023-04-25T13:21:03;11.70;99.90
790;DHT22;378;48.844;9.156;2023-04-25T13:23:30;11.90;99.90
790;DHT22;378;48.844;9.156;2023-04-25T13:25:57;11.90;99.90
790;DHT22;378;48.844;9.156;2023-04-25T13:28:26;11.80;99.90
790;DHT22;378;48.844;9.156;2023-04-25T13:30:53;11.30;99.90
790;DHT22;378;48.844;9.156;2023-04-25T13:33:21;10.90;99.90
790;DHT22;378;48.844;9.156;2023-04-25T13:35:49;10.60;99.90
790;DHT22;378;48.844;9.156;2023-04-25T13:38:20;10.60;99.90
790;DHT22;378;48.844;9.156;2023-04-25T13:40:47;10.80;99.90
790;DHT22;378;48.844;9.156;2023-04-25T13:43:14;11.10;99.90
790;DHT22;378;48.844;9.156;2023-04-25T13:45:42;11.40;99.90
790;DHT22;378;48.844;9.156;2023-04-25T13:48:08;11.10;99.90
790;DHT22;378;48.844;9.156;2023-04-25T13:50:37;11.30;99.90
790;DHT22;378;48.844;9.156;2023-04-25T13:53:03;12.10;99.90
790;DHT22;378;48.844;9.156;2023-04-25T13:55:31;12.50;99.90
790;DHT22;378;48.844;9.156;2023-04-25T13:57:58;12.60;99.90
790;DHT22;378;48.844;9.156;2023-04-25T14:00:25;12.40;99.90
790;DHT22;378;48.844;9.156;2023-04-25T14:02:51;12.30;99.90
790;DHT22;378;48.844;9.156;2023-04-25T14:05:19;12.50;99.90
790;DHT22;378;48.844;9.156;2023-04-25T14:07:47;12.80;99.90
790;DHT22;378;48.844;9.156;2023-04-25T14:10:14;12.70;99.90
790;DHT22;378;48.844;9.156;2023-04-25T14:12:41;12.60;99.90
790;DHT22;378;48.844;9.156;2023-04-25T14:15:08;13.40;99.90
790;DHT22;378;48.844;9.156;2023-04-25T14:17:35;15.80;99.90
790;DHT22;378;48.844;9.156;2023-04-25T14:20:02;18.10;99.90
790;DHT22;378;48.844;9.156;2023-04-25T14:22:31;18.60;99.90
790;DHT22;378;48.844;9.156;2023-04-25T14:24:59;17.80;99.90
790;DHT22;378;48.844;9.156;2023-04-25T14:27:26;16.90;99.90
790;DHT22;378;48.844;9.156;2023-04-25T14:29:53;16.20;99.90
790;DHT22;378;48.844;9.156;2023-04-25T14:32:20;14.90;99.90
790;DHT22;378;48.844;9.156;2023-04-25T14:34:47;14.20;99.90
790;DHT22;378;48.844;9.156;2023-04-25T14:37:15;13.80;99.90
790;DHT22;378;48.844;9.156;2023-04-25T14:39:42;13.70;99.90
790;DHT22;378;48.844;9.156;2023-04-25T14:42:10;13.30;99.90
790;DHT22;378;48.844;9.156;2023-04-25T14:44:37;13.40;99.90
790;DHT22;378;48.844;9.156;2023-04-25T14:47:04;13.50;99.90
790;DHT22;378;48.844;9.156;2023-04-25T14:49:32;14.50;99.90
790;DHT22;378;48.844;9.156;2023-04-25T14:51:59;15.30;99.90
790;DHT22;378;48.844;9.156;2023-04-25T14:54:26;16.10;99.90
790;DHT22;378;48.844;9.156;2023-04-25T14:56:53;17.20;99.90
790;DHT22;378;48.844;9.156;2023-04-25T14:59:21;17.70;99.90
790;DHT22;378;48.844;9.156;2023-04-25T15:01:50;17.60;99.90
790;DHT22;378;48.844;9.156;2023-04-25T15:04:17;17.00;99.90
790;DHT22;378;48.844;9.156;2023-04-25T15:06:44;16.00;99.90
790;DHT22;378;48.844;9.156;2023-04-25T15:09:11;15.60;99.90
790;DHT22;378;48.844;9.156;2023-04-25T15:11:38;15.40;99.90
790;DHT22;378;48.844;9.156;2023-04-25T15:14:05;15.20;99.90
790;DHT22;378;48.844;9.156;2023-04-25T15:16:33;15.10;99.90
790;DHT22;378;48.844;9.156;2023-04-25T15:19:00;15.70;99.90
790;DHT22;378;48.844;9.156;2023-04-25T15:21:29;15.80;99.90
790;DHT22;378;48.844;9.156;2023-04-25T15:23:56;15.60;99.90
790;DHT22;378;48.844;9.156;2023-04-25T15:26:23;15.00;99.90
790;DHT22;378;48.844;9.156;2023-04-25T15:28:50;14.60;99.90
790;DHT22;378;48.844;9.156;2023-04-25T15:31:18;14.40;99.90
790;DHT22;378;48.844;9.156;2023-04-25T15:33:46;13.80;99.90
790;DHT22;378;48.844;9.156;2023-04-25T15:36:13;13.50;99.90
790;DHT22;378;48.844;9.156;2023-04-25T15:38:41;13.60;99.90
790;DHT22;378;48.844;9.156;2023-04-25T15:41:08;13.80;99.90
790;DHT22;378;48.844;9.156;2023-04-25T15:43:36;13.90;99.90
790;DHT22;378;48.844;9.156;2023-04-25T15:46:03;13.70;99.90
790;DHT22;378;48.844;9.156;2023-04-25T15:48:30;13.60;99.90
790;DHT22;378;48.844;9.156;2023-04-25T15:50:59;13.50;99.90
790;DHT22;378;48.844;9.156;2023-04-25T15:53:26;13.70;99.90
790;DHT22;378;48.844;9.156;2023-04-25T15:55:53;14.00;99.90
790;DHT22;378;48.844;9.156;2023-04-25T15:58:20;14.30;99.90
790;DHT22;378;48.844;9.156;2023-04-25T16:00:47;14.60;99.90
790;DHT22;378;48.844;9.156;2023-04-25T16:03:16;15.10;99.90
790;DHT22;378;48.844;9.156;2023-04-25T16:05:43;14.90;99.90
790;DHT22;378;48.844;9.156;2023-04-25T16:08:11;14.30;99.90
790;DHT22;378;48.844;9.156;2023-04-25T16:10:38;14.10;99.90
790;DHT22;378;48.844;9.156;2023-04-25T16:13:04;13.60;99.90
790;DHT22;378;48.844;9.156;2023-04-25T16:15:31;13.10;99.90
790;DHT22;378;48.844;9.156;2023-04-25T16:17:58;12.70;99.90
790;DHT22;378;48.844;9.156;2023-04-25T16:20:25;12.50;99.90
790;DHT22;378;48.844;9.156;2023-04-25T16:22:52;12.20;99.90
790;DHT22;378;48.844;9.156;2023-04-25T16:25:20;12.20;99.90
790;DHT22;378;48.844;9.156;2023-04-25T16:27:47;12.20;99.90
790;DHT22;378;48.844;9.156;2023-04-25T16:30:14;12.20;99.90
790;DHT22;378;48.844;9.156;2023-04-25T16:32:42;12.20;99.90
790;DHT22;378;48.844;9.156;2023-04-25T16:35:09;12.30;99.90
790;DHT22;378;48.844;9.156;2023-04-25T16:37:36;11.80;99.90
790;DHT22;378;48.844;9.156;2023-04-25T16:40:03;11.60;99.90
790;DHT22;378;48.844;9.156;2023-04-25T16:42:34;11.50;99.90
790;DHT22;378;48.844;9.156;2023-04-25T16:45:01;11.30;99.90
790;DHT22;378;48.844;9.156;2023-04-25T16:47:29;11.30;99.90
790;DHT22;378;48.844;9.156;2023-04-25T16:49:58;11.10;99.90